今朝の羽田(2017/03/29)

APJ898/JA807AP(A320)

QFA25/VH-OJU(B744)

ANA850/JA890A(B789)

JAL36/JA705J(B772)

JAL34/JA702J(B772)

*TTW217/B-50016(A320)

ANA844/JA882A(B789)

ANA8554/JA810A(B788)

HKE624/B-LEC(A320)

ANA968/JA804A(B788)

ANA880/JA877A(B789)

SIA636/9V-SWU(B77W)

ANA856/JA885A(B789)

THA682/HS-TGA(B744)

ANA204/JA790A(B77W)

*APJ859/JA807AP(A320)

*AAR177/HL8018(A321)

JAL70/JA824J(B788)

*(C650)

*HKE625/B-LEC(A320)

BAW7/G-STBJ(B77W)

RJTT 282000Z 02011KT 9999 FEW010 BKN/// 06/04 Q1021 NOSIG RMK 1CU010 A3016

RJTT 282100Z 04007KT 9999 FEW010 BKN/// 06/04 Q1022 NOSIG

RJTT 282200Z 03005KT 350V060 9999 FEW010 BKN/// 06/04 Q1022 NOSIG

今朝の羽田は少し雲があります。